sensor_id;sensor_type;location;lat;lon;timestamp;P1;durP1;ratioP1;P2;durP2;ratioP2
6580;SDS011;3324;50.796;7.228;2023-08-01T00:02:18;2.00;;;0.60;;
6580;SDS011;3324;50.796;7.228;2023-08-01T00:04:44;0.30;;;0.30;;
6580;SDS011;3324;50.796;7.228;2023-08-01T00:07:10;0.30;;;0.30;;
6580;SDS011;3324;50.796;7.228;2023-08-01T00:09:35;4.30;;;4.30;;
6580;SDS011;3324;50.796;7.228;2023-08-01T00:12:01;8.40;;;8.10;;
6580;SDS011;3324;50.796;7.228;2023-08-01T00:14:26;7.40;;;7.30;;
6580;SDS011;3324;50.796;7.228;2023-08-01T00:16:52;8.30;;;8.20;;
6580;SDS011;3324;50.796;7.228;2023-08-01T00:19:18;9.18;;;8.77;;
6580;SDS011;3324;50.796;7.228;2023-08-01T00:21:43;8.90;;;8.70;;
6580;SDS011;3324;50.796;7.228;2023-08-01T00:24:09;9.10;;;8.90;;
6580;SDS011;3324;50.796;7.228;2023-08-01T00:26:35;8.10;;;8.00;;
6580;SDS011;3324;50.796;7.228;2023-08-01T00:29:00;9.00;;;8.60;;
6580;SDS011;3324;50.796;7.228;2023-08-01T00:31:26;8.30;;;8.20;;
6580;SDS011;3324;50.796;7.228;2023-08-01T00:33:52;8.30;;;8.10;;
6580;SDS011;3324;50.796;7.228;2023-08-01T00:36:17;9.00;;;8.60;;
6580;SDS011;3324;50.796;7.228;2023-08-01T00:41:09;9.33;;;9.13;;
6580;SDS011;3324;50.796;7.228;2023-08-01T00:43:35;7.55;;;7.45;;
6580;SDS011;3324;50.796;7.228;2023-08-01T00:46:01;9.70;;;9.30;;
6580;SDS011;3324;50.796;7.228;2023-08-01T00:48:29;9.50;;;9.30;;
6580;SDS011;3324;50.796;7.228;2023-08-01T00:50:59;9.00;;;8.80;;
6580;SDS011;3324;50.796;7.228;2023-08-01T00:53:28;8.90;;;8.70;;
6580;SDS011;3324;50.796;7.228;2023-08-01T00:55:54;8.05;;;7.95;;
6580;SDS011;3324;50.796;7.228;2023-08-01T00:58:21;7.10;;;7.00;;
6580;SDS011;3324;50.796;7.228;2023-08-01T01:00:47;9.20;;;9.00;;
6580;SDS011;3324;50.796;7.228;2023-08-01T01:03:13;8.90;;;8.70;;
6580;SDS011;3324;50.796;7.228;2023-08-01T01:05:40;7.10;;;7.00;;
6580;SDS011;3324;50.796;7.228;2023-08-01T01:08:14;4.80;;;4.60;;
6580;SDS011;3324;50.796;7.228;2023-08-01T01:10:40;6.07;;;5.77;;
6580;SDS011;3324;50.796;7.228;2023-08-01T01:13:06;6.30;;;6.20;;
6580;SDS011;3324;50.796;7.228;2023-08-01T01:15:31;7.50;;;7.40;;
6580;SDS011;3324;50.796;7.228;2023-08-01T01:17:57;8.60;;;8.20;;
6580;SDS011;3324;50.796;7.228;2023-08-01T01:20:23;9.70;;;9.30;;
6580;SDS011;3324;50.796;7.228;2023-08-01T01:22:49;9.30;;;9.10;;
6580;SDS011;3324;50.796;7.228;2023-08-01T01:25:18;9.50;;;9.30;;
6580;SDS011;3324;50.796;7.228;2023-08-01T01:27:47;10.40;;;9.90;;
6580;SDS011;3324;50.796;7.228;2023-08-01T01:30:14;9.60;;;9.40;;
6580;SDS011;3324;50.796;7.228;2023-08-01T01:32:41;9.70;;;9.40;;
6580;SDS011;3324;50.796;7.228;2023-08-01T01:35:07;9.70;;;9.40;;
6580;SDS011;3324;50.796;7.228;2023-08-01T01:37:32;9.70;;;9.40;;
6580;SDS011;3324;50.796;7.228;2023-08-01T01:39:58;10.40;;;9.90;;
6580;SDS011;3324;50.796;7.228;2023-08-01T01:42:24;9.70;;;9.40;;
6580;SDS011;3324;50.796;7.228;2023-08-01T01:44:49;9.50;;;9.30;;
6580;SDS011;3324;50.796;7.228;2023-08-01T01:47:15;10.20;;;9.70;;
6580;SDS011;3324;50.796;7.228;2023-08-01T01:49:42;7.53;;;7.23;;
6580;SDS011;3324;50.796;7.228;2023-08-01T01:52:07;6.80;;;6.50;;
6580;SDS011;3324;50.796;7.228;2023-08-01T01:54:33;5.20;;;5.10;;
6580;SDS011;3324;50.796;7.228;2023-08-01T01:56:59;8.00;;;7.90;;
6580;SDS011;3324;50.796;7.228;2023-08-01T01:59:24;9.20;;;8.80;;
6580;SDS011;3324;50.796;7.228;2023-08-01T02:01:50;9.30;;;9.10;;
6580;SDS011;3324;50.796;7.228;2023-08-01T02:04:15;7.80;;;7.70;;
6580;SDS011;3324;50.796;7.228;2023-08-01T02:06:41;7.40;;;7.10;;
6580;SDS011;3324;50.796;7.228;2023-08-01T02:09:07;0.80;;;0.80;;
6580;SDS011;3324;50.796;7.228;2023-08-01T02:11:32;0.30;;;0.30;;
6580;SDS011;3324;50.796;7.228;2023-08-01T02:13:58;0.50;;;0.50;;
6580;SDS011;3324;50.796;7.228;2023-08-01T02:16:23;4.80;;;4.50;;
6580;SDS011;3324;50.796;7.228;2023-08-01T02:18:49;7.70;;;7.60;;
6580;SDS011;3324;50.796;7.228;2023-08-01T02:21:14;6.20;;;6.10;;
6580;SDS011;3324;50.796;7.228;2023-08-01T02:23:40;9.00;;;8.60;;
6580;SDS011;3324;50.796;7.228;2023-08-01T02:26:06;7.90;;;7.80;;
6580;SDS011;3324;50.796;7.228;2023-08-01T02:28:33;7.70;;;7.60;;
6580;SDS011;3324;50.796;7.228;2023-08-01T02:30:58;8.90;;;8.70;;
6580;SDS011;3324;50.796;7.228;2023-08-01T02:33:24;9.40;;;9.20;;
6580;SDS011;3324;50.796;7.228;2023-08-01T02:35:49;10.50;;;10.00;;
6580;SDS011;3324;50.796;7.228;2023-08-01T02:38:15;9.75;;;9.45;;
6580;SDS011;3324;50.796;7.228;2023-08-01T02:40:41;9.50;;;9.30;;
6580;SDS011;3324;50.796;7.228;2023-08-01T02:43:06;10.20;;;9.70;;
6580;SDS011;3324;50.796;7.228;2023-08-01T02:45:32;9.50;;;9.30;;
6580;SDS011;3324;50.796;7.228;2023-08-01T02:47:57;9.50;;;9.30;;
6580;SDS011;3324;50.796;7.228;2023-08-01T02:50:23;10.10;;;9.60;;
6580;SDS011;3324;50.796;7.228;2023-08-01T02:52:48;9.40;;;9.20;;
6580;SDS011;3324;50.796;7.228;2023-08-01T02:55:14;9.20;;;9.00;;
6580;SDS011;3324;50.796;7.228;2023-08-01T02:57:40;9.90;;;9.50;;
6580;SDS011;3324;50.796;7.228;2023-08-01T03:00:05;8.90;;;8.70;;
6580;SDS011;3324;50.796;7.228;2023-08-01T03:02:36;9.90;;;9.50;;
6580;SDS011;3324;50.796;7.228;2023-08-01T03:05:06;9.20;;;9.00;;
6580;SDS011;3324;50.796;7.228;2023-08-01T03:07:32;9.10;;;8.90;;
6580;SDS011;3324;50.796;7.228;2023-08-01T03:09:58;9.30;;;8.90;;
6580;SDS011;3324;50.796;7.228;2023-08-01T03:12:24;8.35;;;8.20;;
6580;SDS011;3324;50.796;7.228;2023-08-01T03:14:49;8.47;;;8.27;;
6580;SDS011;3324;50.796;7.228;2023-08-01T03:17:15;8.20;;;8.10;;
6580;SDS011;3324;50.796;7.228;2023-08-01T03:19:41;8.60;;;8.30;;
6580;SDS011;3324;50.796;7.228;2023-08-01T03:22:07;9.00;;;8.80;;
6580;SDS011;3324;50.796;7.228;2023-08-01T03:24:34;9.80;;;9.40;;
6580;SDS011;3324;50.796;7.228;2023-08-01T03:27:00;8.70;;;8.50;;
6580;SDS011;3324;50.796;7.228;2023-08-01T03:29:26;9.20;;;9.00;;
6580;SDS011;3324;50.796;7.228;2023-08-01T03:31:52;8.80;;;8.60;;
6580;SDS011;3324;50.796;7.228;2023-08-01T03:34:17;9.07;;;8.67;;
6580;SDS011;3324;50.796;7.228;2023-08-01T03:36:43;8.00;;;7.80;;
6580;SDS011;3324;50.796;7.228;2023-08-01T03:39:09;8.10;;;8.00;;
6580;SDS011;3324;50.796;7.228;2023-08-01T03:41:35;7.82;;;7.72;;
6580;SDS011;3324;50.796;7.228;2023-08-01T03:44:02;8.10;;;7.90;;
6580;SDS011;3324;50.796;7.228;2023-08-01T03:46:28;7.70;;;7.60;;
6580;SDS011;3324;50.796;7.228;2023-08-01T03:48:53;8.60;;;8.30;;
6580;SDS011;3324;50.796;7.228;2023-08-01T03:51:19;7.30;;;7.20;;
6580;SDS011;3324;50.796;7.228;2023-08-01T03:53:45;7.50;;;7.40;;
6580;SDS011;3324;50.796;7.228;2023-08-01T03:56:11;6.18;;;6.07;;
6580;SDS011;3324;50.796;7.228;2023-08-01T03:58:37;7.70;;;7.60;;
6580;SDS011;3324;50.796;7.228;2023-08-01T04:01:02;7.60;;;7.50;;
6580;SDS011;3324;50.796;7.228;2023-08-01T04:03:28;7.90;;;7.80;;
6580;SDS011;3324;50.796;7.228;2023-08-01T04:05:53;7.60;;;7.50;;
6580;SDS011;3324;50.796;7.228;2023-08-01T04:08:19;8.75;;;8.35;;
6580;SDS011;3324;50.796;7.228;2023-08-01T04:10:45;7.45;;;7.35;;
6580;SDS011;3324;50.796;7.228;2023-08-01T04:13:10;7.70;;;7.60;;
6580;SDS011;3324;50.796;7.228;2023-08-01T04:15:36;9.70;;;9.20;;
6580;SDS011;3324;50.796;7.228;2023-08-01T04:18:02;8.00;;;7.70;;
6580;SDS011;3324;50.796;7.228;2023-08-01T04:20:27;8.00;;;7.90;;
6580;SDS011;3324;50.796;7.228;2023-08-01T04:22:53;7.00;;;6.90;;
6580;SDS011;3324;50.796;7.228;2023-08-01T04:25:19;7.90;;;7.60;;
6580;SDS011;3324;50.796;7.228;2023-08-01T04:27:45;8.70;;;8.40;;
6580;SDS011;3324;50.796;7.228;2023-08-01T04:30:10;7.80;;;7.70;;
6580;SDS011;3324;50.796;7.228;2023-08-01T04:32:36;7.70;;;7.60;;
6580;SDS011;3324;50.796;7.228;2023-08-01T04:35:02;8.70;;;8.30;;
6580;SDS011;3324;50.796;7.228;2023-08-01T04:37:28;7.60;;;7.50;;
6580;SDS011;3324;50.796;7.228;2023-08-01T04:39:53;7.60;;;7.50;;
6580;SDS011;3324;50.796;7.228;2023-08-01T04:42:19;7.20;;;7.10;;
6580;SDS011;3324;50.796;7.228;2023-08-01T04:44:44;7.63;;;7.33;;
6580;SDS011;3324;50.796;7.228;2023-08-01T04:47:10;5.30;;;5.20;;
6580;SDS011;3324;50.796;7.228;2023-08-01T04:49:36;5.60;;;5.50;;
6580;SDS011;3324;50.796;7.228;2023-08-01T04:52:01;5.30;;;5.20;;
6580;SDS011;3324;50.796;7.228;2023-08-01T04:54:27;7.60;;;7.30;;
6580;SDS011;3324;50.796;7.228;2023-08-01T04:56:53;6.20;;;6.10;;
6580;SDS011;3324;50.796;7.228;2023-08-01T04:59:19;5.68;;;5.57;;
6580;SDS011;3324;50.796;7.228;2023-08-01T05:01:44;6.80;;;6.40;;
6580;SDS011;3324;50.796;7.228;2023-08-01T05:04:10;4.70;;;4.70;;
6580;SDS011;3324;50.796;7.228;2023-08-01T05:06:36;3.70;;;3.70;;
6580;SDS011;3324;50.796;7.228;2023-08-01T05:09:01;5.15;;;5.05;;
6580;SDS011;3324;50.796;7.228;2023-08-01T05:11:27;6.55;;;6.25;;
6580;SDS011;3324;50.796;7.228;2023-08-01T05:13:53;6.65;;;6.35;;
6580;SDS011;3324;50.796;7.228;2023-08-01T05:16:18;5.03;;;4.93;;
6580;SDS011;3324;50.796;7.228;2023-08-01T05:18:44;5.05;;;4.95;;
6580;SDS011;3324;50.796;7.228;2023-08-01T05:21:10;7.20;;;6.90;;
6580;SDS011;3324;50.796;7.228;2023-08-01T05:23:35;4.30;;;4.30;;
6580;SDS011;3324;50.796;7.228;2023-08-01T05:26:01;5.25;;;5.15;;
6580;SDS011;3324;50.796;7.228;2023-08-01T05:28:27;1.00;;;1.00;;
6580;SDS011;3324;50.796;7.228;2023-08-01T05:30:52;5.00;;;4.80;;
6580;SDS011;3324;50.796;7.228;2023-08-01T05:33:18;5.50;;;5.40;;
6580;SDS011;3324;50.796;7.228;2023-08-01T05:35:44;4.13;;;4.13;;
6580;SDS011;3324;50.796;7.228;2023-08-01T05:38:09;6.83;;;6.53;;
6580;SDS011;3324;50.796;7.228;2023-08-01T05:40:35;2.77;;;2.77;;
6580;SDS011;3324;50.796;7.228;2023-08-01T05:43:00;5.40;;;5.30;;
6580;SDS011;3324;50.796;7.228;2023-08-01T05:45:26;6.40;;;6.30;;
6580;SDS011;3324;50.796;7.228;2023-08-01T05:47:52;7.93;;;7.63;;
6580;SDS011;3324;50.796;7.228;2023-08-01T05:52:43;6.40;;;6.30;;
6580;SDS011;3324;50.796;7.228;2023-08-01T05:55:08;7.70;;;7.40;;
6580;SDS011;3324;50.796;7.228;2023-08-01T05:57:34;6.80;;;6.70;;
6580;SDS011;3324;50.796;7.228;2023-08-01T06:00:00;7.00;;;6.90;;
6580;SDS011;3324;50.796;7.228;2023-08-01T06:02:26;7.30;;;7.20;;
6580;SDS011;3324;50.796;7.228;2023-08-01T06:04:52;8.27;;;7.97;;
6580;SDS011;3324;50.796;7.228;2023-08-01T06:07:17;8.30;;;8.00;;
6580;SDS011;3324;50.796;7.228;2023-08-01T06:09:48;7.82;;;7.53;;
6580;SDS011;3324;50.796;7.228;2023-08-01T06:12:15;7.70;;;7.60;;
6580;SDS011;3324;50.796;7.228;2023-08-01T06:14:41;7.50;;;7.40;;
6580;SDS011;3324;50.796;7.228;2023-08-01T06:17:07;7.80;;;7.70;;
6580;SDS011;3324;50.796;7.228;2023-08-01T06:19:33;8.80;;;8.40;;
6580;SDS011;3324;50.796;7.228;2023-08-01T06:21:58;7.40;;;7.30;;
6580;SDS011;3324;50.796;7.228;2023-08-01T06:24:25;7.80;;;7.70;;
6580;SDS011;3324;50.796;7.228;2023-08-01T06:26:50;7.80;;;7.70;;
6580;SDS011;3324;50.796;7.228;2023-08-01T06:29:16;8.65;;;8.25;;
6580;SDS011;3324;50.796;7.228;2023-08-01T06:31:42;7.60;;;7.50;;
6580;SDS011;3324;50.796;7.228;2023-08-01T06:34:07;8.00;;;7.90;;
6580;SDS011;3324;50.796;7.228;2023-08-01T06:36:33;9.10;;;8.70;;
6580;SDS011;3324;50.796;7.228;2023-08-01T06:38:58;8.00;;;7.90;;
6580;SDS011;3324;50.796;7.228;2023-08-01T06:41:24;8.10;;;8.00;;
6580;SDS011;3324;50.796;7.228;2023-08-01T06:43:50;8.60;;;8.40;;
6580;SDS011;3324;50.796;7.228;2023-08-01T06:46:15;9.60;;;9.20;;
6580;SDS011;3324;50.796;7.228;2023-08-01T06:48:41;8.47;;;8.27;;
6580;SDS011;3324;50.796;7.228;2023-08-01T06:51:06;8.00;;;7.90;;
6580;SDS011;3324;50.796;7.228;2023-08-01T06:53:32;8.97;;;8.57;;
6580;SDS011;3324;50.796;7.228;2023-08-01T06:55:57;7.60;;;7.50;;
6580;SDS011;3324;50.796;7.228;2023-08-01T06:58:23;7.68;;;7.57;;
6580;SDS011;3324;50.796;7.228;2023-08-01T07:00:48;8.60;;;8.30;;
6580;SDS011;3324;50.796;7.228;2023-08-01T07:03:14;7.90;;;7.80;;
6580;SDS011;3324;50.796;7.228;2023-08-01T07:05:40;8.30;;;8.10;;
6580;SDS011;3324;50.796;7.228;2023-08-01T07:08:05;8.00;;;7.90;;
6580;SDS011;3324;50.796;7.228;2023-08-01T07:10:34;8.95;;;8.55;;
6580;SDS011;3324;50.796;7.228;2023-08-01T07:12:59;8.20;;;8.10;;
6580;SDS011;3324;50.796;7.228;2023-08-01T07:15:28;8.60;;;8.40;;
6580;SDS011;3324;50.796;7.228;2023-08-01T07:17:54;9.90;;;9.50;;
6580;SDS011;3324;50.796;7.228;2023-08-01T07:20:20;9.10;;;8.90;;
6580;SDS011;3324;50.796;7.228;2023-08-01T07:22:45;8.50;;;8.30;;
6580;SDS011;3324;50.796;7.228;2023-08-01T07:25:11;9.20;;;9.00;;
6580;SDS011;3324;50.796;7.228;2023-08-01T07:30:03;9.30;;;9.10;;
6580;SDS011;3324;50.796;7.228;2023-08-01T07:32:29;9.30;;;9.10;;
6580;SDS011;3324;50.796;7.228;2023-08-01T07:34:55;9.40;;;9.20;;
6580;SDS011;3324;50.796;7.228;2023-08-01T07:37:20;9.00;;;8.80;;
6580;SDS011;3324;50.796;7.228;2023-08-01T07:39:46;10.30;;;9.80;;
6580;SDS011;3324;50.796;7.228;2023-08-01T07:42:11;9.60;;;9.40;;
6580;SDS011;3324;50.796;7.228;2023-08-01T07:44:37;9.40;;;9.20;;
6580;SDS011;3324;50.796;7.228;2023-08-01T07:47:03;9.70;;;9.30;;
6580;SDS011;3324;50.796;7.228;2023-08-01T07:49:28;9.50;;;9.30;;
6580;SDS011;3324;50.796;7.228;2023-08-01T07:51:54;9.45;;;9.25;;
6580;SDS011;3324;50.796;7.228;2023-08-01T07:54:20;9.30;;;9.10;;
6580;SDS011;3324;50.796;7.228;2023-08-01T07:56:45;9.40;;;9.20;;
6580;SDS011;3324;50.796;7.228;2023-08-01T07:59:13;9.30;;;9.10;;
6580;SDS011;3324;50.796;7.228;2023-08-01T08:01:39;9.60;;;9.20;;
6580;SDS011;3324;50.796;7.228;2023-08-01T08:04:05;9.30;;;9.10;;
6580;SDS011;3324;50.796;7.228;2023-08-01T08:06:30;9.30;;;9.10;;
6580;SDS011;3324;50.796;7.228;2023-08-01T08:08:56;9.50;;;9.30;;
6580;SDS011;3324;50.796;7.228;2023-08-01T08:11:22;10.20;;;9.70;;
6580;SDS011;3324;50.796;7.228;2023-08-01T08:18:39;9.75;;;9.45;;
6580;SDS011;3324;50.796;7.228;2023-08-01T08:21:05;10.30;;;9.80;;
6580;SDS011;3324;50.796;7.228;2023-08-01T08:23:30;9.50;;;9.30;;
6580;SDS011;3324;50.796;7.228;2023-08-01T08:25:56;9.00;;;8.80;;
6580;SDS011;3324;50.796;7.228;2023-08-01T08:28:28;9.93;;;9.52;;
6580;SDS011;3324;50.796;7.228;2023-08-01T08:30:57;10.10;;;9.60;;
6580;SDS011;3324;50.796;7.228;2023-08-01T08:33:23;10.80;;;10.30;;
6580;SDS011;3324;50.796;7.228;2023-08-01T08:35:49;9.55;;;9.30;;
6580;SDS011;3324;50.796;7.228;2023-08-01T08:38:16;9.60;;;9.30;;
6580;SDS011;3324;50.796;7.228;2023-08-01T08:40:43;9.15;;;8.95;;
6580;SDS011;3324;50.796;7.228;2023-08-01T08:43:34;9.80;;;9.50;;
6580;SDS011;3324;50.796;7.228;2023-08-01T08:46:02;9.80;;;9.50;;
6580;SDS011;3324;50.796;7.228;2023-08-01T08:48:29;9.90;;;9.60;;
6580;SDS011;3324;50.796;7.228;2023-08-01T08:50:59;9.60;;;9.30;;
6580;SDS011;3324;50.796;7.228;2023-08-01T08:53:26;10.05;;;9.55;;
6580;SDS011;3324;50.796;7.228;2023-08-01T08:55:51;9.00;;;8.80;;
6580;SDS011;3324;50.796;7.228;2023-08-01T08:58:17;9.25;;;9.05;;
6580;SDS011;3324;50.796;7.228;2023-08-01T09:00:43;8.90;;;8.70;;
6580;SDS011;3324;50.796;7.228;2023-08-01T09:03:09;9.10;;;8.90;;
6580;SDS011;3324;50.796;7.228;2023-08-01T09:05:40;9.70;;;9.30;;
6580;SDS011;3324;50.796;7.228;2023-08-01T09:08:18;8.90;;;8.70;;
6580;SDS011;3324;50.796;7.228;2023-08-01T09:10:45;9.30;;;9.00;;
6580;SDS011;3324;50.796;7.228;2023-08-01T09:13:12;9.75;;;9.45;;
6580;SDS011;3324;50.796;7.228;2023-08-01T09:15:37;9.15;;;8.95;;
6580;SDS011;3324;50.796;7.228;2023-08-01T09:18:08;9.10;;;8.90;;
6580;SDS011;3324;50.796;7.228;2023-08-01T09:20:40;9.60;;;9.30;;
6580;SDS011;3324;50.796;7.228;2023-08-01T09:23:08;9.23;;;9.02;;
6580;SDS011;3324;50.796;7.228;2023-08-01T09:25:34;9.90;;;9.60;;
6580;SDS011;3324;50.796;7.228;2023-08-01T09:28:00;9.90;;;9.60;;
6580;SDS011;3324;50.796;7.228;2023-08-01T09:30:26;10.03;;;9.73;;
6580;SDS011;3324;50.796;7.228;2023-08-01T09:32:53;10.57;;;10.17;;
6580;SDS011;3324;50.796;7.228;2023-08-01T09:35:20;10.53;;;10.13;;
6580;SDS011;3324;50.796;7.228;2023-08-01T09:37:46;10.10;;;9.80;;
6580;SDS011;3324;50.796;7.228;2023-08-01T09:40:13;10.65;;;10.25;;
6580;SDS011;3324;50.796;7.228;2023-08-01T09:42:43;10.83;;;10.43;;
6580;SDS011;3324;50.796;7.228;2023-08-01T09:45:16;11.10;;;10.50;;
6580;SDS011;3324;50.796;7.228;2023-08-01T09:47:43;11.50;;;10.80;;
6580;SDS011;3324;50.796;7.228;2023-08-01T09:50:10;10.80;;;10.40;;
6580;SDS011;3324;50.796;7.228;2023-08-01T09:52:38;10.67;;;10.27;;
6580;SDS011;3324;50.796;7.228;2023-08-01T09:55:04;10.80;;;10.40;;
6580;SDS011;3324;50.796;7.228;2023-08-01T09:57:30;10.60;;;10.20;;
6580;SDS011;3324;50.796;7.228;2023-08-01T09:59:57;10.40;;;10.00;;
6580;SDS011;3324;50.796;7.228;2023-08-01T10:02:24;11.20;;;10.70;;
6580;SDS011;3324;50.796;7.228;2023-08-01T10:04:55;11.70;;;11.00;;
6580;SDS011;3324;50.796;7.228;2023-08-01T10:07:23;11.10;;;10.60;;
6580;SDS011;3324;50.796;7.228;2023-08-01T10:09:51;11.20;;;10.70;;
6580;SDS011;3324;50.796;7.228;2023-08-01T10:12:20;11.70;;;11.00;;
6580;SDS011;3324;50.796;7.228;2023-08-01T10:14:49;11.25;;;10.75;;
6580;SDS011;3324;50.796;7.228;2023-08-01T10:17:16;11.40;;;10.90;;
6580;SDS011;3324;50.796;7.228;2023-08-01T10:19:42;11.23;;;10.73;;
6580;SDS011;3324;50.796;7.228;2023-08-01T10:22:07;10.90;;;10.40;;
6580;SDS011;3324;50.796;7.228;2023-08-01T10:24:34;10.70;;;10.20;;
6580;SDS011;3324;50.796;7.228;2023-08-01T10:27:14;11.20;;;10.70;;
6580;SDS011;3324;50.796;7.228;2023-08-01T10:29:43;11.30;;;10.80;;
6580;SDS011;3324;50.796;7.228;2023-08-01T10:32:09;11.73;;;11.13;;
6580;SDS011;3324;50.796;7.228;2023-08-01T10:34:35;11.77;;;11.17;;
6580;SDS011;3324;50.796;7.228;2023-08-01T10:37:01;11.50;;;10.80;;
6580;SDS011;3324;50.796;7.228;2023-08-01T10:39:27;11.20;;;10.70;;
6580;SDS011;3324;50.796;7.228;2023-08-01T10:44:28;11.32;;;10.82;;
6580;SDS011;3324;50.796;7.228;2023-08-01T10:47:02;11.83;;;11.23;;
6580;SDS011;3324;50.796;7.228;2023-08-01T10:49:33;11.80;;;11.20;;
6580;SDS011;3324;50.796;7.228;2023-08-01T10:52:04;11.80;;;11.20;;
6580;SDS011;3324;50.796;7.228;2023-08-01T10:54:45;11.40;;;10.90;;
6580;SDS011;3324;50.796;7.228;2023-08-01T10:57:17;11.50;;;11.00;;
6580;SDS011;3324;50.796;7.228;2023-08-01T10:59:43;11.50;;;10.80;;
6580;SDS011;3324;50.796;7.228;2023-08-01T11:02:09;10.10;;;9.60;;
6580;SDS011;3324;50.796;7.228;2023-08-01T11:04:35;10.20;;;9.90;;
6580;SDS011;3324;50.796;7.228;2023-08-01T11:07:01;10.60;;;10.20;;
6580;SDS011;3324;50.796;7.228;2023-08-01T11:09:29;11.10;;;10.50;;
6580;SDS011;3324;50.796;7.228;2023-08-01T11:11:55;11.00;;;10.50;;
6580;SDS011;3324;50.796;7.228;2023-08-01T11:14:26;11.10;;;10.50;;
6580;SDS011;3324;50.796;7.228;2023-08-01T11:16:56;11.80;;;11.10;;
6580;SDS011;3324;50.796;7.228;2023-08-01T11:19:23;12.30;;;11.50;;
6580;SDS011;3324;50.796;7.228;2023-08-01T11:21:53;11.10;;;10.60;;
6580;SDS011;3324;50.796;7.228;2023-08-01T11:24:21;12.00;;;11.20;;
6580;SDS011;3324;50.796;7.228;2023-08-01T11:26:48;11.90;;;11.20;;
6580;SDS011;3324;50.796;7.228;2023-08-01T11:29:15;10.70;;;10.20;;
6580;SDS011;3324;50.796;7.228;2023-08-01T11:31:52;10.30;;;9.90;;
6580;SDS011;3324;50.796;7.228;2023-08-01T11:34:19;11.30;;;10.60;;
6580;SDS011;3324;50.796;7.228;2023-08-01T11:36:45;10.80;;;10.30;;
6580;SDS011;3324;50.796;7.228;2023-08-01T11:39:11;11.60;;;11.10;;
6580;SDS011;3324;50.796;7.228;2023-08-01T11:41:37;11.40;;;10.90;;
6580;SDS011;3324;50.796;7.228;2023-08-01T11:44:03;12.10;;;11.30;;
6580;SDS011;3324;50.796;7.228;2023-08-01T11:46:33;12.30;;;11.50;;
6580;SDS011;3324;50.796;7.228;2023-08-01T11:48:59;12.23;;;11.43;;
6580;SDS011;3324;50.796;7.228;2023-08-01T11:51:26;11.30;;;10.60;;
6580;SDS011;3324;50.796;7.228;2023-08-01T11:54:02;11.20;;;10.70;;
6580;SDS011;3324;50.796;7.228;2023-08-01T11:56:29;11.00;;;10.50;;
6580;SDS011;3324;50.796;7.228;2023-08-01T11:58:56;11.20;;;10.70;;
6580;SDS011;3324;50.796;7.228;2023-08-01T12:01:21;11.30;;;10.60;;
6580;SDS011;3324;50.796;7.228;2023-08-01T12:03:48;11.90;;;11.20;;
6580;SDS011;3324;50.796;7.228;2023-08-01T12:08:45;10.90;;;10.40;;
6580;SDS011;3324;50.796;7.228;2023-08-01T12:11:25;10.40;;;10.00;;
6580;SDS011;3324;50.796;7.228;2023-08-01T12:14:02;11.60;;;10.90;;
6580;SDS011;3324;50.796;7.228;2023-08-01T12:16:39;10.90;;;10.40;;
6580;SDS011;3324;50.796;7.228;2023-08-01T12:19:18;10.83;;;10.33;;
6580;SDS011;3324;50.796;7.228;2023-08-01T12:21:47;11.20;;;10.70;;
6580;SDS011;3324;50.796;7.228;2023-08-01T12:24:13;10.87;;;10.37;;
6580;SDS011;3324;50.796;7.228;2023-08-01T12:29:04;11.85;;;11.15;;
6580;SDS011;3324;50.796;7.228;2023-08-01T12:31:30;10.80;;;10.30;;
6580;SDS011;3324;50.796;7.228;2023-08-01T12:33:56;10.80;;;10.30;;
6580;SDS011;3324;50.796;7.228;2023-08-01T12:36:21;11.40;;;10.70;;
6580;SDS011;3324;50.796;7.228;2023-08-01T12:38:47;11.10;;;10.60;;
6580;SDS011;3324;50.796;7.228;2023-08-01T12:41:13;11.20;;;10.70;;
6580;SDS011;3324;50.796;7.228;2023-08-01T12:43:38;12.68;;;11.88;;
6580;SDS011;3324;50.796;7.228;2023-08-01T12:46:04;11.02;;;10.52;;
6580;SDS011;3324;50.796;7.228;2023-08-01T12:48:30;11.00;;;10.50;;
6580;SDS011;3324;50.796;7.228;2023-08-01T12:50:55;10.60;;;10.00;;
6580;SDS011;3324;50.796;7.228;2023-08-01T12:53:21;10.30;;;9.90;;
6580;SDS011;3324;50.796;7.228;2023-08-01T12:58:13;10.57;;;10.17;;
6580;SDS011;3324;50.796;7.228;2023-08-01T13:00:40;10.40;;;10.00;;
6580;SDS011;3324;50.796;7.228;2023-08-01T13:03:07;11.00;;;10.50;;
6580;SDS011;3324;50.796;7.228;2023-08-01T13:05:40;10.93;;;10.43;;
6580;SDS011;3324;50.796;7.228;2023-08-01T13:08:06;10.90;;;10.40;;
6580;SDS011;3324;50.796;7.228;2023-08-01T13:10:34;10.70;;;10.30;;
6580;SDS011;3324;50.796;7.228;2023-08-01T13:13:01;11.50;;;10.80;;
6580;SDS011;3324;50.796;7.228;2023-08-01T13:15:27;11.50;;;10.80;;
6580;SDS011;3324;50.796;7.228;2023-08-01T13:17:53;10.70;;;10.30;;
6580;SDS011;3324;50.796;7.228;2023-08-01T13:20:19;10.10;;;9.80;;
6580;SDS011;3324;50.796;7.228;2023-08-01T13:22:45;10.70;;;10.30;;
6580;SDS011;3324;50.796;7.228;2023-08-01T13:25:13;11.00;;;10.40;;
6580;SDS011;3324;50.796;7.228;2023-08-01T13:27:39;10.20;;;9.80;;
6580;SDS011;3324;50.796;7.228;2023-08-01T13:30:05;10.40;;;10.00;;
6580;SDS011;3324;50.796;7.228;2023-08-01T13:32:31;10.70;;;10.30;;
6580;SDS011;3324;50.796;7.228;2023-08-01T13:34:57;11.40;;;10.70;;
6580;SDS011;3324;50.796;7.228;2023-08-01T13:37:22;11.20;;;10.70;;
6580;SDS011;3324;50.796;7.228;2023-08-01T13:39:48;11.40;;;10.80;;
6580;SDS011;3324;50.796;7.228;2023-08-01T13:42:14;11.40;;;10.70;;
6580;SDS011;3324;50.796;7.228;2023-08-01T13:44:40;11.30;;;10.80;;
6580;SDS011;3324;50.796;7.228;2023-08-01T13:47:06;11.30;;;10.80;;
6580;SDS011;3324;50.796;7.228;2023-08-01T13:51:58;12.00;;;11.30;;
6580;SDS011;3324;50.796;7.228;2023-08-01T13:54:24;11.35;;;10.65;;
6580;SDS011;3324;50.796;7.228;2023-08-01T13:56:49;11.20;;;10.70;;
6580;SDS011;3324;50.796;7.228;2023-08-01T13:59:15;11.10;;;10.60;;
6580;SDS011;3324;50.796;7.228;2023-08-01T14:01:41;11.18;;;10.57;;
6580;SDS011;3324;50.796;7.228;2023-08-01T14:04:06;11.30;;;10.80;;
6580;SDS011;3324;50.796;7.228;2023-08-01T14:06:32;11.30;;;10.80;;
6580;SDS011;3324;50.796;7.228;2023-08-01T14:08:58;11.88;;;11.18;;
6580;SDS011;3324;50.796;7.228;2023-08-01T14:11:23;11.60;;;11.10;;
6580;SDS011;3324;50.796;7.228;2023-08-01T14:13:49;11.50;;;10.90;;
6580;SDS011;3324;50.796;7.228;2023-08-01T14:16:14;12.50;;;11.70;;
6580;SDS011;3324;50.796;7.228;2023-08-01T14:18:41;12.30;;;11.50;;
6580;SDS011;3324;50.796;7.228;2023-08-01T14:21:07;11.60;;;11.00;;
6580;SDS011;3324;50.796;7.228;2023-08-01T14:23:33;11.30;;;10.80;;
6580;SDS011;3324;50.796;7.228;2023-08-01T14:25:59;11.50;;;11.00;;
6580;SDS011;3324;50.796;7.228;2023-08-01T14:28:24;12.20;;;11.40;;
6580;SDS011;3324;50.796;7.228;2023-08-01T14:30:50;11.10;;;10.60;;
6580;SDS011;3324;50.796;7.228;2023-08-01T14:33:16;11.00;;;10.50;;
6580;SDS011;3324;50.796;7.228;2023-08-01T14:35:42;11.10;;;10.50;;
6580;SDS011;3324;50.796;7.228;2023-08-01T14:38:07;9.70;;;9.40;;
6580;SDS011;3324;50.796;7.228;2023-08-01T14:40:35;9.73;;;9.43;;
6580;SDS011;3324;50.796;7.228;2023-08-01T14:43:01;10.50;;;10.10;;
6580;SDS011;3324;50.796;7.228;2023-08-01T14:45:27;10.70;;;10.30;;
6580;SDS011;3324;50.796;7.228;2023-08-01T14:47:52;10.40;;;10.00;;
6580;SDS011;3324;50.796;7.228;2023-08-01T14:50:18;11.40;;;10.70;;
6580;SDS011;3324;50.796;7.228;2023-08-01T14:52:44;11.00;;;10.50;;
6580;SDS011;3324;50.796;7.228;2023-08-01T14:55:10;10.20;;;9.80;;
6580;SDS011;3324;50.796;7.228;2023-08-01T14:57:35;10.50;;;10.10;;
6580;SDS011;3324;50.796;7.228;2023-08-01T15:00:01;11.30;;;10.70;;
6580;SDS011;3324;50.796;7.228;2023-08-01T15:02:28;11.20;;;10.60;;
6580;SDS011;3324;50.796;7.228;2023-08-01T15:04:54;10.40;;;10.00;;
6580;SDS011;3324;50.796;7.228;2023-08-01T15:07:21;10.30;;;9.90;;
6580;SDS011;3324;50.796;7.228;2023-08-01T15:09:47;10.50;;;10.10;;
6580;SDS011;3324;50.796;7.228;2023-08-01T15:12:15;11.25;;;10.65;;
6580;SDS011;3324;50.796;7.228;2023-08-01T15:14:41;11.50;;;10.80;;
6580;SDS011;3324;50.796;7.228;2023-08-01T15:17:06;10.40;;;10.00;;
6580;SDS011;3324;50.796;7.228;2023-08-01T15:19:33;10.70;;;10.30;;
6580;SDS011;3324;50.796;7.228;2023-08-01T15:22:00;10.90;;;10.40;;
6580;SDS011;3324;50.796;7.228;2023-08-01T15:24:26;10.77;;;10.37;;
6580;SDS011;3324;50.796;7.228;2023-08-01T15:26:51;10.90;;;10.40;;